Time;durP1;ratioP1;P1;durP2;ratioP2;P2;SDS_P1;SDS_P2;PMS_P1;PMS_P2;Temp;Humidity;BMP_temperature;BMP_pressure;BME280_temperature;BME280_humidity;BME280_pressure;Samples;Min_cycle;Max_cycle;Signal;HPM_P1;HPM_P2
2021/11/04 00:01:43;;;;;;;13.55;7.20;;;8.60;99.90;;;;;;5119647;28;20171;-85
2021/11/04 00:04:09;;;;;;;17.83;8.17;;;8.70;99.90;;;;;;5100281;28;20266;-85
2021/11/04 00:06:35;;;;;;;11.23;6.80;;;8.60;99.90;;;;;;5134923;28;20169;-86
2021/11/04 00:09:00;;;;;;;11.93;7.37;;;8.40;99.90;;;;;;5122942;28;20174;-85
2021/11/04 00:11:29;;;;;;;13.80;8.90;;;8.50;99.90;;;;;;5124918;28;20181;-85
2021/11/04 00:13:55;;;;;;;9.18;6.75;;;8.30;99.90;;;;;;5124455;28;20698;-85
2021/11/04 00:16:20;;;;;;;18.83;10.00;;;8.30;99.90;;;;;;5130370;28;20170;-86
2021/11/04 00:18:46;;;;;;;13.20;7.90;;;8.50;99.90;;;;;;5129436;28;20412;-85
2021/11/04 00:21:12;;;;;;;14.83;8.00;;;8.40;99.90;;;;;;5124921;28;20182;-84
2021/11/04 00:23:37;;;;;;;13.47;8.40;;;8.20;99.90;;;;;;5104173;28;20213;-84
2021/11/04 00:26:03;;;;;;;17.67;9.57;;;8.20;99.90;;;;;;5088632;28;20273;-84
2021/11/04 00:28:29;;;;;;;13.30;7.20;;;8.10;99.90;;;;;;5123410;28;20170;-84
2021/11/04 00:30:55;;;;;;;15.93;7.53;;;7.90;99.90;;;;;;5109068;28;20167;-85
2021/11/04 00:33:20;;;;;;;15.20;9.17;;;7.90;99.90;;;;;;5124706;28;20214;-85
2021/11/04 00:35:51;;;;;;;12.40;7.90;;;7.80;99.90;;;;;;5106086;28;20457;-85
2021/11/04 00:38:17;;;;;;;11.95;7.45;;;7.80;99.90;;;;;;5106678;28;20171;-85
2021/11/04 00:40:42;;;;;;;15.77;9.17;;;7.70;99.90;;;;;;5115726;28;20204;-85
2021/11/04 00:43:08;;;;;;;9.70;6.73;;;7.70;99.90;;;;;;5100543;28;20210;-85
2021/11/04 00:45:33;;;;;;;15.40;8.73;;;7.70;99.90;;;;;;5113270;28;20265;-85
2021/11/04 00:47:59;;;;;;;13.73;8.37;;;7.70;99.90;;;;;;5113014;28;20171;-85
2021/11/04 00:50:28;;;;;;;21.53;8.97;;;7.70;99.90;;;;;;5129156;28;20175;-85
2021/11/04 00:52:54;;;;;;;14.43;7.72;;;7.70;99.90;;;;;;5109517;28;20198;-84
2021/11/04 00:55:19;;;;;;;18.87;9.00;;;7.70;99.90;;;;;;5130481;28;20206;-84
2021/11/04 00:57:46;;;;;;;15.23;8.67;;;7.70;99.90;;;;;;5131743;28;20158;-84
2021/11/04 01:00:13;;;;;;;16.58;8.88;;;7.70;99.90;;;;;;5126690;28;20622;-84
2021/11/04 01:02:40;;;;;;;16.25;9.80;;;7.60;99.90;;;;;;5127571;28;20189;-85
2021/11/04 01:05:09;;;;;;;18.20;9.55;;;7.60;99.90;;;;;;5111020;28;20190;-85
2021/11/04 01:07:34;;;;;;;17.63;10.15;;;7.50;99.90;;;;;;5105301;28;20167;-85
2021/11/04 01:10:00;;;;;;;17.83;8.93;;;7.50;99.90;;;;;;5122667;28;20224;-85
2021/11/04 01:12:26;;;;;;;19.90;11.87;;;7.60;99.90;;;;;;5108436;28;20197;-85
2021/11/04 01:14:51;;;;;;;16.67;9.37;;;7.60;99.90;;;;;;5111644;28;20187;-85
2021/11/04 01:17:17;;;;;;;21.57;11.03;;;7.50;99.90;;;;;;5115134;28;20175;-86
2021/11/04 01:19:42;;;;;;;17.23;9.33;;;7.70;99.90;;;;;;5100159;28;20250;-85
2021/11/04 01:22:08;;;;;;;18.63;10.90;;;7.80;99.90;;;;;;5120217;28;20200;-85
2021/11/04 01:24:34;;;;;;;14.80;9.57;;;8.00;99.90;;;;;;5124045;28;20206;-84
2021/11/04 01:26:59;;;;;;;15.20;8.70;;;8.10;99.90;;;;;;5123154;28;20223;-86
2021/11/04 01:29:25;;;;;;;20.40;10.20;;;8.20;99.90;;;;;;5122818;28;20415;-84
2021/11/04 01:31:51;;;;;;;20.87;9.87;;;8.20;99.90;;;;;;5111754;28;20220;-85
2021/11/04 01:34:17;;;;;;;15.93;9.87;;;8.20;99.90;;;;;;5129739;28;20207;-86
2021/11/04 01:36:42;;;;;;;19.10;9.33;;;8.10;99.90;;;;;;5113258;28;20415;-86
2021/11/04 01:39:08;;;;;;;17.97;9.83;;;8.00;99.90;;;;;;5131058;28;20198;-85
2021/11/04 01:41:33;;;;;;;17.57;10.27;;;8.10;99.90;;;;;;5089183;28;20201;-85
2021/11/04 01:43:59;;;;;;;16.67;10.00;;;7.90;99.90;;;;;;5125617;28;20186;-85
2021/11/04 01:46:26;;;;;;;18.15;9.73;;;7.90;99.90;;;;;;5130259;28;20159;-86
2021/11/04 01:48:52;;;;;;;19.48;11.35;;;7.90;99.90;;;;;;5109402;28;20171;-85
2021/11/04 01:51:18;;;;;;;21.23;10.68;;;7.80;99.90;;;;;;5111756;28;20181;-84
2021/11/04 01:53:45;;;;;;;16.80;11.30;;;8.00;99.90;;;;;;5130335;28;20202;-85
2021/11/04 01:56:10;;;;;;;15.15;10.50;;;8.30;99.90;;;;;;5094932;28;20633;-85
2021/11/04 01:58:36;;;;;;;18.67;10.83;;;8.10;99.90;;;;;;5111458;28;20159;-85
2021/11/04 02:01:02;;;;;;;20.07;10.73;;;8.00;99.90;;;;;;5130495;28;20163;-84
2021/11/04 02:03:39;;;;;;;20.08;10.20;;;8.10;99.90;;;;;;5130727;28;20189;-85
2021/11/04 02:06:26;;;;;;;14.88;9.70;;;8.30;99.90;;;;;;5134730;28;20626;-86
2021/11/04 02:09:01;;;;;;;20.98;11.63;;;8.10;99.90;;;;;;5116556;28;20162;-85
2021/11/04 02:11:40;;;;;;;22.40;11.02;;;7.90;99.90;;;;;;5136181;28;20162;-85
2021/11/04 02:14:27;;;;;;;21.35;10.20;;;7.90;99.90;;;;;;5136074;28;20191;-85
2021/11/04 02:16:56;;;;;;;17.30;10.38;;;7.70;99.90;;;;;;5117197;28;20190;-85
2021/11/04 02:19:52;;;;;;;17.23;10.38;;;7.70;99.90;;;;;;5111095;28;20170;-85
2021/11/04 02:22:37;;;;;;;17.80;10.45;;;7.70;99.90;;;;;;5129974;28;20143;-85
2021/11/04 02:25:22;;;;;;;22.55;12.23;;;7.60;99.90;;;;;;5136204;28;20191;-85
2021/11/04 02:27:51;;;;;;;21.45;9.95;;;7.50;99.90;;;;;;5137439;28;20181;-85
2021/11/04 02:30:19;;;;;;;23.85;13.15;;;7.60;99.90;;;;;;5111586;28;20167;-85
2021/11/04 02:32:45;;;;;;;20.83;11.60;;;7.60;99.90;;;;;;5110725;28;20215;-86
2021/11/04 02:35:12;;;;;;;21.60;12.73;;;7.60;99.90;;;;;;5126705;28;20183;-85
2021/11/04 02:37:39;;;;;;;19.05;11.20;;;7.60;99.90;;;;;;5110058;28;20190;-85
2021/11/04 02:40:09;;;;;;;27.33;12.02;;;7.60;99.90;;;;;;5130635;28;20171;-86
2021/11/04 02:42:36;;;;;;;21.88;10.90;;;7.50;99.90;;;;;;5115271;28;20198;-85
2021/11/04 02:45:05;;;;;;;29.13;13.80;;;7.50;99.90;;;;;;5114213;28;20256;-84
2021/11/04 02:47:31;;;;;;;22.42;11.60;;;7.50;99.90;;;;;;5121101;28;20171;-85
2021/11/04 02:49:57;;;;;;;17.73;12.53;;;7.50;99.90;;;;;;5113992;28;20206;-87
2021/11/04 02:52:23;;;;;;;25.38;13.48;;;7.50;99.90;;;;;;5128017;28;20190;-86
2021/11/04 02:54:59;;;;;;;21.70;12.38;;;7.40;99.90;;;;;;5129313;28;20201;-85
2021/11/04 02:57:26;;;;;;;21.38;12.00;;;7.50;99.90;;;;;;5130743;28;20158;-85
2021/11/04 02:59:52;;;;;;;24.45;13.25;;;7.40;99.90;;;;;;5110578;28;20182;-86
2021/11/04 03:02:18;;;;;;;19.40;11.57;;;7.40;99.90;;;;;;5129945;28;20234;-86
2021/11/04 03:04:43;;;;;;;24.87;13.20;;;7.30;99.90;;;;;;5129557;28;20216;-85
2021/11/04 03:07:09;;;;;;;23.87;12.90;;;7.40;99.90;;;;;;5114147;28;20178;-85
2021/11/04 03:09:37;;;;;;;22.80;14.10;;;7.30;99.90;;;;;;5115376;28;20179;-84
2021/11/04 03:12:04;;;;;;;26.70;14.73;;;7.30;99.90;;;;;;5130881;28;20191;-85
2021/11/04 03:14:29;;;;;;;26.98;13.95;;;7.30;99.90;;;;;;5130620;28;20201;-85
2021/11/04 03:16:57;;;;;;;27.07;13.97;;;7.30;99.90;;;;;;5131694;28;20187;-85
2021/11/04 03:19:24;;;;;;;20.67;12.60;;;7.50;99.90;;;;;;5128695;28;20219;-85
2021/11/04 03:21:52;;;;;;;23.40;11.55;;;7.70;99.90;;;;;;5101906;28;20185;-85
2021/11/04 03:24:23;;;;;;;27.70;12.00;;;7.90;99.90;;;;;;5119062;28;20194;-85
2021/11/04 03:26:55;;;;;;;21.92;12.82;;;8.00;99.90;;;;;;5120280;28;20204;-85
2021/11/04 03:29:23;;;;;;;23.55;13.88;;;8.00;99.90;;;;;;5104103;28;20582;-85
2021/11/04 03:31:53;;;;;;;23.15;13.25;;;7.70;99.90;;;;;;5122444;28;20167;-85
2021/11/04 03:34:20;;;;;;;26.30;13.15;;;7.60;99.90;;;;;;5122853;28;20191;-85
2021/11/04 03:36:48;;;;;;;29.73;13.20;;;7.60;99.90;;;;;;5106483;28;20256;-85
2021/11/04 03:39:19;;;;;;;25.05;12.25;;;7.60;99.90;;;;;;5107919;28;20167;-84
2021/11/04 03:41:47;;;;;;;31.83;14.95;;;7.60;99.90;;;;;;5124529;28;20190;-86
2021/11/04 03:44:14;;;;;;;22.77;13.68;;;7.80;99.90;;;;;;5124792;28;20182;-85
2021/11/04 03:46:43;;;;;;;26.40;15.02;;;7.90;99.90;;;;;;5107038;28;20170;-84
2021/11/04 03:49:29;;;;;;;26.15;15.55;;;7.70;99.90;;;;;;5106222;28;20175;-85
2021/11/04 03:51:55;;;;;;;24.25;13.30;;;7.60;99.90;;;;;;5110266;28;20174;-84
2021/11/04 03:54:24;;;;;;;31.13;14.38;;;7.50;99.90;;;;;;5108788;28;20210;-85
2021/11/04 03:56:51;;;;;;;31.60;15.13;;;7.50;99.90;;;;;;5127958;28;20533;-86
2021/11/04 03:59:17;;;;;;;29.33;16.63;;;7.60;99.90;;;;;;5108601;28;20190;-84
2021/11/04 04:01:42;;;;;;;26.67;13.80;;;7.50;99.90;;;;;;5107630;28;20232;-85
2021/11/04 04:04:09;;;;;;;25.73;14.50;;;7.40;99.90;;;;;;5126324;28;20190;-85
2021/11/04 04:06:35;;;;;;;30.23;15.68;;;7.40;99.90;;;;;;5113272;28;20182;-85
2021/11/04 04:09:02;;;;;;;30.15;16.08;;;7.40;99.90;;;;;;5132612;28;20218;-85
2021/11/04 04:11:28;;;;;;;31.40;16.50;;;7.40;99.90;;;;;;5116798;28;20174;-85
2021/11/04 04:13:57;;;;;;;29.73;16.17;;;7.40;99.90;;;;;;5111673;28;20206;-85
2021/11/04 04:16:23;;;;;;;28.85;16.27;;;7.40;99.90;;;;;;5129756;28;20170;-85
2021/11/04 04:18:50;;;;;;;32.30;16.30;;;7.40;99.90;;;;;;5111584;28;20174;-85
2021/11/04 04:21:16;;;;;;;29.00;15.82;;;7.40;99.90;;;;;;5112806;28;20167;-85
2021/11/04 04:23:43;;;;;;;27.98;16.67;;;7.40;99.90;;;;;;5108798;28;20182;-84
2021/11/04 04:26:08;;;;;;;35.10;17.58;;;7.30;99.90;;;;;;5104364;28;20178;-84
2021/11/04 04:28:35;;;;;;;31.47;16.23;;;7.40;99.90;;;;;;5103720;28;20170;-85
2021/11/04 04:31:00;;;;;;;31.88;16.45;;;7.40;99.90;;;;;;5127130;28;20167;-85
2021/11/04 04:33:26;;;;;;;35.13;20.17;;;7.40;99.90;;;;;;5092079;28;20214;-85
2021/11/04 04:35:55;;;;;;;32.30;17.33;;;7.40;99.90;;;;;;5092645;28;20294;-85
2021/11/04 04:38:23;;;;;;;37.10;17.73;;;7.40;99.90;;;;;;5106384;28;20174;-85
2021/11/04 04:40:51;;;;;;;30.35;16.48;;;7.30;99.90;;;;;;5103634;28;20171;-85
2021/11/04 04:43:17;;;;;;;35.45;18.95;;;7.30;99.90;;;;;;5087772;28;20187;-84
2021/11/04 04:45:46;;;;;;;29.80;17.15;;;7.30;99.90;;;;;;5127837;28;20197;-85
2021/11/04 04:48:12;;;;;;;32.03;17.35;;;7.30;99.90;;;;;;5109231;28;20175;-84
2021/11/04 04:50:39;;;;;;;37.73;18.83;;;7.30;99.90;;;;;;5106664;28;20247;-84
2021/11/04 04:53:06;;;;;;;35.25;19.05;;;7.30;99.90;;;;;;5108017;28;20212;-85
2021/11/04 04:55:35;;;;;;;45.33;18.10;;;7.30;99.90;;;;;;5109445;28;20183;-85
2021/11/04 04:58:01;;;;;;;31.92;18.00;;;7.20;99.90;;;;;;5107375;28;20167;-85
2021/11/04 05:00:26;;;;;;;38.55;16.52;;;7.30;99.90;;;;;;5104990;28;20166;-85
2021/11/04 05:02:52;;;;;;;31.43;16.60;;;7.30;99.90;;;;;;5088316;28;20175;-85
2021/11/04 05:05:18;;;;;;;32.77;16.03;;;7.30;99.90;;;;;;5106735;28;20432;-85
2021/11/04 05:07:46;;;;;;;41.20;16.90;;;7.30;99.90;;;;;;5112350;28;20663;-85
2021/11/04 05:10:13;;;;;;;35.63;17.35;;;7.40;99.90;;;;;;5130281;28;20219;-85
2021/11/04 05:12:45;;;;;;;40.47;18.50;;;7.40;99.90;;;;;;5114118;28;20236;-86
2021/11/04 05:15:14;;;;;;;36.75;17.77;;;7.30;99.90;;;;;;5099408;28;20202;-85
2021/11/04 05:17:39;;;;;;;34.85;17.67;;;7.40;99.90;;;;;;5116482;28;20178;-84
2021/11/04 05:20:09;;;;;;;32.30;17.30;;;7.40;99.90;;;;;;5118135;28;20162;-85
2021/11/04 05:25:44;;;;;;;33.75;18.65;;;7.30;99.90;;;;;;5091986;28;20282;-85
2021/11/04 05:28:36;;;;;;;33.08;18.58;;;7.30;99.90;;;;;;5132279;28;20245;-85
2021/11/04 05:31:02;;;;;;;42.22;19.02;;;7.40;99.90;;;;;;5094820;28;20190;-82
2021/11/04 05:33:28;;;;;;;36.30;18.10;;;7.50;99.90;;;;;;5136504;28;20199;-85
2021/11/04 05:35:53;;;;;;;37.03;16.73;;;7.50;99.90;;;;;;5107495;28;20195;-83
2021/11/04 05:38:19;;;;;;;29.67;17.10;;;7.50;99.90;;;;;;5108701;28;20173;-84
2021/11/04 05:40:45;;;;;;;37.20;15.97;;;7.60;99.90;;;;;;5113120;28;20227;-85
2021/11/04 05:43:10;;;;;;;39.77;19.43;;;7.70;99.90;;;;;;5106130;28;20534;-84
2021/11/04 05:45:36;;;;;;;34.87;19.17;;;7.60;99.90;;;;;;5105927;28;20199;-85
2021/11/04 05:48:01;;;;;;;36.10;16.23;;;7.70;99.90;;;;;;5126250;28;20224;-87
2021/11/04 05:50:27;;;;;;;37.50;19.30;;;7.60;99.90;;;;;;5107804;28;20208;-85
2021/11/04 05:52:53;;;;;;;34.93;19.33;;;7.70;99.90;;;;;;5127276;28;20195;-85
2021/11/04 05:55:18;;;;;;;30.70;16.73;;;7.60;99.90;;;;;;5087468;28;20200;-87
2021/11/04 05:57:44;;;;;;;34.00;15.27;;;7.60;99.90;;;;;;5103273;28;20179;-85
2021/11/04 06:00:10;;;;;;;38.50;17.90;;;7.60;99.90;;;;;;5092380;28;20185;-85
2021/11/04 06:02:36;;;;;;;44.50;20.60;;;7.50;99.90;;;;;;5126022;28;20175;-86
2021/11/04 06:05:01;;;;;;;37.83;19.73;;;7.60;99.90;;;;;;5109289;28;20254;-86
2021/11/04 06:07:30;;;;;;;44.07;18.00;;;7.60;99.90;;;;;;5115998;28;20234;-85
2021/11/04 06:09:56;;;;;;;33.20;18.15;;;7.60;99.90;;;;;;5135951;28;20185;-84
2021/11/04 06:12:22;;;;;;;38.37;18.50;;;7.50;99.90;;;;;;5105033;28;20749;-83
2021/11/04 06:14:47;;;;;;;35.10;20.30;;;7.50;99.90;;;;;;5118975;28;20444;-82
2021/11/04 06:17:13;;;;;;;40.27;19.07;;;7.50;99.90;;;;;;5088489;28;20178;-82
2021/11/04 06:19:38;;;;;;;38.73;19.30;;;7.50;99.90;;;;;;5102456;28;20186;-81
2021/11/04 06:22:04;;;;;;;37.80;17.13;;;7.50;99.90;;;;;;5119102;28;20231;-83
2021/11/04 06:24:30;;;;;;;41.33;19.80;;;7.50;99.90;;;;;;5099815;28;20574;-83
2021/11/04 06:26:55;;;;;;;35.10;18.07;;;7.50;99.90;;;;;;5118476;28;20415;-83
2021/11/04 06:29:21;;;;;;;36.17;17.03;;;7.50;99.90;;;;;;5119465;28;20218;-84
2021/11/04 06:31:47;;;;;;;41.70;18.30;;;7.50;99.90;;;;;;5118710;28;20192;-83
2021/11/04 06:34:12;;;;;;;38.60;19.00;;;7.60;99.90;;;;;;5105504;28;20196;-83
2021/11/04 06:36:38;;;;;;;42.93;18.80;;;7.60;99.90;;;;;;5121642;28;20178;-82
2021/11/04 06:39:04;;;;;;;32.03;16.40;;;7.60;99.90;;;;;;5139437;28;20163;-82
2021/11/04 06:41:29;;;;;;;26.70;16.00;;;7.60;99.90;;;;;;5130011;28;20178;-84
2021/11/04 06:43:55;;;;;;;34.83;15.37;;;7.60;99.90;;;;;;5101222;28;20194;-83
2021/11/04 06:46:23;;;;;;;35.40;17.10;;;7.70;99.90;;;;;;5100705;28;20247;-82
2021/11/04 06:48:59;;;;;;;38.72;17.95;;;7.70;99.90;;;;;;5100721;28;20171;-83
2021/11/04 06:51:29;;;;;;;37.05;18.05;;;7.70;99.90;;;;;;5081390;28;20519;-82
2021/11/04 06:54:00;;;;;;;36.80;17.63;;;7.70;99.90;;;;;;5081112;28;20203;-83
2021/11/04 06:56:28;;;;;;;32.47;16.60;;;7.70;99.90;;;;;;5081669;28;20175;-83
2021/11/04 06:58:55;;;;;;;50.15;20.67;;;7.60;99.90;;;;;;5117349;28;20242;-82
2021/11/04 07:01:25;;;;;;;41.35;20.05;;;7.60;99.90;;;;;;5099111;28;20182;-82
2021/11/04 07:03:55;;;;;;;35.25;17.80;;;7.60;99.90;;;;;;5126494;28;20206;-83
2021/11/04 07:06:24;;;;;;;39.38;18.80;;;7.70;99.90;;;;;;5131703;28;20254;-82
2021/11/04 07:08:59;;;;;;;40.42;19.10;;;7.60;99.90;;;;;;5122396;28;20230;-83
2021/11/04 07:11:29;;;;;;;39.47;19.95;;;7.80;99.90;;;;;;5117911;28;20560;-82
2021/11/04 07:13:55;;;;;;;40.17;19.35;;;7.60;99.90;;;;;;5117343;28;20210;-82
2021/11/04 07:16:23;;;;;;;41.08;18.35;;;7.60;99.90;;;;;;5117366;28;20195;-83
2021/11/04 07:18:53;;;;;;;42.97;22.45;;;7.60;99.90;;;;;;5118355;28;20178;-81
2021/11/04 07:21:39;;;;;;;46.55;22.90;;;7.50;99.90;;;;;;5100780;28;20633;-82
2021/11/04 07:24:07;;;;;;;41.22;21.70;;;7.50;99.90;;;;;;5097113;28;20213;-81
2021/11/04 07:27:05;;;;;;;43.97;20.08;;;7.40;99.90;;;;;;5091054;28;20266;-82
2021/11/04 07:29:37;;;;;;;32.35;18.50;;;7.50;99.90;;;;;;5098518;28;20621;-80
2021/11/04 07:32:04;;;;;;;44.55;21.15;;;7.50;99.90;;;;;;5120222;28;20221;-82
2021/11/04 07:34:30;;;;;;;37.30;19.60;;;7.50;99.90;;;;;;5119122;28;20199;-79
2021/11/04 07:36:56;;;;;;;48.67;21.25;;;7.50;99.90;;;;;;5119071;28;20193;-81
2021/11/04 07:39:22;;;;;;;32.67;19.27;;;7.50;99.90;;;;;;5118168;28;20175;-84
2021/11/04 07:41:51;;;;;;;36.00;19.88;;;7.50;99.90;;;;;;5100167;28;20190;-82
2021/11/04 07:44:19;;;;;;;35.10;17.30;;;7.50;99.90;;;;;;5083063;28;20190;-82
2021/11/04 07:46:44;;;;;;;47.88;19.65;;;7.50;99.90;;;;;;5099432;28;20171;-82
2021/11/04 07:49:10;;;;;;;41.60;18.83;;;7.50;99.90;;;;;;5099712;28;20271;-83
2021/11/04 07:51:46;;;;;;;39.53;17.63;;;7.90;99.90;;;;;;5101908;28;20175;-82
2021/11/04 07:54:12;;;;;;;34.58;17.27;;;8.10;99.90;;;;;;5100360;28;20276;-82
2021/11/04 07:56:40;;;;;;;41.17;19.40;;;8.30;99.90;;;;;;5119045;28;20217;-82
2021/11/04 07:59:31;;;;;;;40.10;16.80;;;8.40;99.90;;;;;;5101500;28;20198;-83
2021/11/04 08:02:17;;;;;;;37.63;17.02;;;8.40;99.90;;;;;;5101370;28;20273;-82
2021/11/04 08:05:40;;;;;;;;;;;;;;;;;;;;;
2021/11/04 08:08:07;;;;;;;32.65;17.65;;;8.40;99.90;;;;;;5120870;27;20273;-83
2021/11/04 08:10:36;;;;;;;30.10;15.35;;;8.10;99.90;;;;;;5108144;28;20166;-84
2021/11/04 08:13:07;;;;;;;33.25;17.63;;;7.80;99.90;;;;;;5121842;27;20244;-82
2021/11/04 08:15:36;;;;;;;39.65;17.20;;;7.60;99.90;;;;;;5120256;27;20182;-82
2021/11/04 08:18:07;;;;;;;34.55;17.73;;;7.50;99.90;;;;;;5131666;27;20203;-84
2021/11/04 08:20:32;;;;;;;31.67;16.83;;;7.40;99.90;;;;;;5099690;28;20271;-83
2021/11/04 08:22:59;;;;;;;33.80;16.77;;;7.50;99.90;;;;;;5117183;28;20254;-82
2021/11/04 08:25:25;;;;;;;37.15;17.17;;;7.50;99.90;;;;;;5116288;28;20729;-82
2021/11/04 08:27:51;;;;;;;41.95;17.83;;;7.60;99.90;;;;;;5098810;28;20178;-82
2021/11/04 08:30:17;;;;;;;34.90;19.23;;;7.40;99.90;;;;;;5083904;28;20255;-82
2021/11/04 08:32:44;;;;;;;30.23;16.77;;;7.40;99.90;;;;;;5082346;28;20214;-83
2021/11/04 08:35:10;;;;;;;37.60;18.67;;;7.30;99.90;;;;;;5099802;28;20627;-82
2021/11/04 08:37:36;;;;;;;36.33;16.43;;;7.30;99.90;;;;;;5100577;28;20199;-83
2021/11/04 08:40:03;;;;;;;33.67;17.73;;;7.30;99.90;;;;;;5098731;28;20207;-82
2021/11/04 08:42:29;;;;;;;29.20;14.85;;;7.20;99.90;;;;;;5100951;28;20338;-83
2021/11/04 08:44:56;;;;;;;39.47;17.85;;;7.20;99.90;;;;;;5086694;28;20238;-84
2021/11/04 08:47:22;;;;;;;29.00;15.45;;;7.20;99.90;;;;;;5121609;28;20178;-83
2021/11/04 08:49:48;;;;;;;33.33;16.67;;;7.20;99.90;;;;;;5084307;28;20689;-82
2021/11/04 08:52:14;;;;;;;27.80;15.20;;;7.10;99.90;;;;;;5092898;28;20206;-82
2021/11/04 08:54:41;;;;;;;26.45;13.65;;;7.10;99.90;;;;;;5124242;28;20191;-83
2021/11/04 08:57:12;;;;;;;32.35;15.93;;;7.10;99.90;;;;;;5122102;28;20159;-83
2021/11/04 08:59:41;;;;;;;32.38;15.77;;;7.10;99.90;;;;;;5122800;28;20191;-83
2021/11/04 09:02:45;;;;;;;29.88;15.98;;;7.00;99.90;;;;;;5108378;28;20204;-85
2021/11/04 09:05:14;;;;;;;30.20;14.25;;;7.00;99.90;;;;;;5124941;28;20241;-84
2021/11/04 09:07:41;;;;;;;31.15;15.82;;;7.00;99.90;;;;;;5111254;28;20263;-85
2021/11/04 09:10:09;;;;;;;29.30;16.30;;;7.00;99.90;;;;;;5118154;28;20154;-85
2021/11/04 09:12:39;;;;;;;26.25;14.52;;;7.00;99.90;;;;;;5137544;28;20201;-85
2021/11/04 09:15:11;;;;;;;27.00;14.93;;;7.00;99.90;;;;;;5119736;28;20259;-84
2021/11/04 09:17:44;;;;;;;29.60;16.27;;;7.00;99.90;;;;;;5121360;28;20170;-85
2021/11/04 09:20:14;;;;;;;26.63;14.90;;;6.90;99.90;;;;;;5119618;28;20192;-84
2021/11/04 09:22:39;;;;;;;26.00;14.75;;;7.00;99.90;;;;;;5119790;28;20167;-83
2021/11/04 09:25:06;;;;;;;21.70;13.27;;;6.90;99.90;;;;;;5137053;28;20185;-84
2021/11/04 09:27:34;;;;;;;26.08;14.93;;;7.00;99.90;;;;;;5120544;28;20169;-84
2021/11/04 09:30:01;;;;;;;27.73;14.05;;;7.00;99.90;;;;;;5138073;28;20220;-86
2021/11/04 09:32:26;;;;;;;25.05;14.65;;;6.90;99.90;;;;;;5110543;28;20203;-84
2021/11/04 09:34:55;;;;;;;30.60;15.97;;;6.90;99.90;;;;;;5107207;28;20569;-83
2021/11/04 09:37:26;;;;;;;27.17;13.73;;;6.80;99.90;;;;;;5107413;28;20269;-85
2021/11/04 09:39:51;;;;;;;24.98;12.95;;;6.90;99.90;;;;;;5105220;28;20186;-81
2021/11/04 09:42:18;;;;;;;22.00;11.47;;;6.90;99.90;;;;;;5103151;28;20190;-80
2021/11/04 09:44:48;;;;;;;16.45;10.35;;;6.90;99.90;;;;;;5118816;28;20273;-80
2021/11/04 09:47:27;;;;;;;22.98;11.73;;;7.00;99.90;;;;;;5100441;28;20605;-82
2021/11/04 09:49:56;;;;;;;21.75;11.00;;;7.00;99.90;;;;;;5102511;28;20166;-82
2021/11/04 09:52:28;;;;;;;25.63;14.10;;;6.90;99.90;;;;;;5119605;28;20202;-82
2021/11/04 09:54:55;;;;;;;24.38;12.38;;;6.90;99.90;;;;;;5076232;28;20214;-81
2021/11/04 09:57:25;;;;;;;21.83;12.88;;;6.90;99.90;;;;;;5085524;28;20190;-82
2021/11/04 09:59:55;;;;;;;24.67;12.70;;;6.90;99.90;;;;;;5063312;28;20200;-80
2021/11/04 10:02:28;;;;;;;19.90;11.57;;;6.90;99.90;;;;;;5102385;27;20205;-82
2021/11/04 10:05:03;;;;;;;20.42;11.27;;;6.90;99.90;;;;;;5145072;27;20680;-79
2021/11/04 10:07:44;;;;;;;26.73;13.38;;;6.80;99.90;;;;;;5133047;27;20214;-79
2021/11/04 10:10:10;;;;;;;23.17;12.65;;;6.90;99.90;;;;;;5122548;28;20257;-80
2021/11/04 10:12:36;;;;;;;19.00;11.40;;;6.90;99.90;;;;;;5121374;28;20269;-81
2021/11/04 10:15:15;;;;;;;19.80;11.50;;;6.80;99.90;;;;;;5105005;28;20259;-79
2021/11/04 10:17:41;;;;;;;25.17;12.05;;;6.80;99.90;;;;;;5105987;28;20174;-81
2021/11/04 10:20:15;;;;;;;23.33;12.05;;;6.80;99.90;;;;;;5106006;28;20618;-81
2021/11/04 10:22:41;;;;;;;15.90;9.68;;;6.90;99.90;;;;;;5106389;28;20174;-81
2021/11/04 10:25:20;;;;;;;16.57;9.03;;;6.90;99.90;;;;;;5125411;28;20186;-81
2021/11/04 10:27:46;;;;;;;18.35;10.02;;;6.80;99.90;;;;;;5106659;28;20503;-82
2021/11/04 10:30:40;;;;;;;17.27;10.30;;;6.90;99.90;;;;;;5124834;28;20588;-83
2021/11/04 10:33:26;;;;;;;13.93;9.60;;;6.90;99.90;;;;;;5122474;28;20676;-82
2021/11/04 10:36:17;;;;;;;24.90;11.02;;;6.90;99.90;;;;;;5122308;28;20277;-80
2021/11/04 10:39:01;;;;;;;17.25;9.27;;;6.90;99.90;;;;;;5094629;28;20452;-81
2021/11/04 10:41:35;;;;;;;19.13;10.48;;;6.90;99.90;;;;;;5105141;28;20240;-81
2021/11/04 10:44:05;;;;;;;13.43;8.05;;;6.90;99.90;;;;;;5110603;28;20202;-79
2021/11/04 10:46:39;;;;;;;17.73;9.93;;;6.90;99.90;;;;;;5106208;28;20212;-81
2021/11/04 10:49:05;;;;;;;15.30;8.57;;;6.90;99.90;;;;;;5105072;28;20170;-81
2021/11/04 10:51:32;;;;;;;12.53;7.13;;;6.90;99.90;;;;;;5122492;28;20449;-81
2021/11/04 10:54:11;;;;;;;11.55;7.25;;;6.90;99.90;;;;;;5105791;28;20486;-81
2021/11/04 10:56:42;;;;;;;11.82;7.40;;;6.90;99.90;;;;;;5104944;28;20171;-81
2021/11/04 10:59:13;;;;;;;13.13;7.63;;;6.90;99.90;;;;;;5107115;28;20177;-80
2021/11/04 11:01:50;;;;;;;10.52;6.68;;;6.90;99.90;;;;;;5107560;28;20186;-80
2021/11/04 11:04:24;;;;;;;15.65;7.93;;;6.90;99.90;;;;;;5125175;28;21330;-81
2021/11/04 11:06:58;;;;;;;13.10;7.32;;;6.90;99.90;;;;;;5107418;28;20171;-81
2021/11/04 11:09:29;;;;;;;10.45;6.13;;;7.00;99.90;;;;;;5089159;28;20262;-81
2021/11/04 11:12:04;;;;;;;8.10;5.72;;;7.00;99.90;;;;;;5105236;28;20592;-80
2021/11/04 11:14:34;;;;;;;11.75;6.65;;;7.00;99.90;;;;;;5120640;28;20178;-79
2021/11/04 11:17:01;;;;;;;11.98;6.97;;;7.00;99.90;;;;;;5125452;28;20163;-81
2021/11/04 11:19:38;;;;;;;12.60;5.90;;;7.00;99.90;;;;;;5121944;28;20633;-81
2021/11/04 11:22:11;;;;;;;9.93;6.47;;;7.00;99.90;;;;;;5087376;28;20246;-81
2021/11/04 11:24:42;;;;;;;7.68;5.85;;;7.00;99.90;;;;;;5086139;28;20191;-80
2021/11/04 11:27:14;;;;;;;11.02;6.72;;;7.00;99.90;;;;;;5121808;28;20187;-81
2021/11/04 11:29:43;;;;;;;8.60;5.07;;;7.00;99.90;;;;;;5104633;28;20638;-82
2021/11/04 11:32:20;;;;;;;8.95;5.10;;;7.00;99.90;;;;;;5086821;28;20251;-83
2021/11/04 11:34:46;;;;;;;7.78;5.60;;;7.00;99.90;;;;;;5127182;28;20196;-84
2021/11/04 11:37:16;;;;;;;10.02;5.50;;;7.00;99.90;;;;;;5103984;28;20200;-83
2021/11/04 11:39:53;;;;;;;9.70;6.25;;;7.10;99.90;;;;;;5123137;28;20240;-80
2021/11/04 11:42:23;;;;;;;7.05;4.93;;;7.10;99.90;;;;;;5122450;28;20189;-82
2021/11/04 11:45:01;;;;;;;10.40;6.15;;;7.00;99.90;;;;;;5123390;28;20217;-81
2021/11/04 11:47:34;;;;;;;9.95;5.50;;;7.10;99.90;;;;;;5105018;28;20171;-81
2021/11/04 11:50:31;;;;;;;10.43;5.93;;;7.10;99.90;;;;;;5090329;28;20172;-81
2021/11/04 11:53:18;;;;;;;8.27;5.50;;;7.10;99.90;;;;;;5125178;28;20198;-81
2021/11/04 11:55:49;;;;;;;5.82;4.50;;;7.10;99.90;;;;;;5095704;28;20187;-80
2021/11/04 11:58:23;;;;;;;8.75;4.97;;;7.00;99.90;;;;;;5132407;28;20170;-82
2021/11/04 12:00:59;;;;;;;9.10;5.70;;;7.00;99.90;;;;;;5117848;28;20180;-81
2021/11/04 12:03:40;;;;;;;6.93;4.55;;;7.10;99.90;;;;;;5112596;28;20182;-81
2021/11/04 12:06:15;;;;;;;8.20;4.97;;;7.00;99.90;;;;;;5101336;28;20183;-81
2021/11/04 12:08:52;;;;;;;7.22;4.65;;;7.10;99.90;;;;;;5121373;28;20513;-82
2021/11/04 12:11:41;;;;;;;5.28;3.63;;;7.10;99.90;;;;;;5086201;28;20182;-82
2021/11/04 12:14:23;;;;;;;7.25;4.35;;;7.10;99.90;;;;;;5135660;27;20278;-80
2021/11/04 12:17:02;;;;;;;6.38;3.92;;;7.10;99.90;;;;;;5102162;28;20316;-82
2021/11/04 12:19:52;;;;;;;8.07;5.00;;;7.10;99.90;;;;;;5102610;28;20182;-82
2021/11/04 12:22:17;;;;;;;8.57;4.53;;;7.10;99.90;;;;;;5100984;28;20231;-82
2021/11/04 12:24:58;;;;;;;7.00;4.30;;;7.20;99.90;;;;;;5100938;28;20277;-82
2021/11/04 12:27:27;;;;;;;6.38;4.00;;;7.10;99.90;;;;;;5081609;28;20187;-81
2021/11/04 12:29:56;;;;;;;6.03;4.75;;;7.10;99.90;;;;;;5100368;28;20178;-82
2021/11/04 12:32:26;;;;;;;6.22;4.70;;;7.10;99.90;;;;;;5103807;28;20206;-82
2021/11/04 12:34:59;;;;;;;5.80;3.90;;;7.20;99.90;;;;;;5100943;28;20197;-82
2021/11/04 12:37:30;;;;;;;6.47;4.30;;;7.20;99.90;;;;;;5101433;28;20217;-82
2021/11/04 12:40:01;;;;;;;9.07;4.97;;;7.20;99.90;;;;;;5098429;28;20257;-81
2021/11/04 12:42:27;;;;;;;5.80;4.20;;;7.20;99.90;;;;;;5081315;28;20190;-81
2021/11/04 12:44:55;;;;;;;6.70;4.70;;;7.30;99.90;;;;;;5117299;28;20240;-85
2021/11/04 12:47:22;;;;;;;6.35;5.28;;;7.20;99.90;;;;;;5081822;28;20523;-83
2021/11/04 12:49:51;;;;;;;6.43;5.07;;;7.20;99.90;;;;;;5123119;28;20163;-83
2021/11/04 12:52:16;;;;;;;5.72;3.70;;;7.20;99.90;;;;;;5086916;28;20266;-84
2021/11/04 12:54:53;;;;;;;11.10;5.10;;;7.20;99.90;;;;;;5085171;28;20342;-84
2021/11/04 12:57:24;;;;;;;6.30;4.25;;;7.30;99.90;;;;;;5103750;28;20481;-82
2021/11/04 13:00:03;;;;;;;5.10;3.47;;;7.30;99.90;;;;;;5086840;28;20177;-82